sensor_id;sensor_type;location;lat;lon;timestamp;pressure;altitude;pressure_sealevel;temperature;humidity
65376;BME280;51976;47.332;9.404;2024-01-15T00:01:50;91659.78;;;1.17;100.00
65376;BME280;51976;47.332;9.404;2024-01-15T00:04:16;91655.81;;;1.19;100.00
65376;BME280;51976;47.332;9.404;2024-01-15T00:06:41;91651.91;;;1.27;100.00
65376;BME280;51976;47.332;9.404;2024-01-15T00:09:06;91642.88;;;1.28;100.00
65376;BME280;51976;47.332;9.404;2024-01-15T00:11:32;91630.66;;;1.27;100.00
65376;BME280;51976;47.332;9.404;2024-01-15T00:13:57;91632.56;;;1.31;100.00
65376;BME280;51976;47.332;9.404;2024-01-15T00:16:23;91620.63;;;1.34;100.00
65376;BME280;51976;47.332;9.404;2024-01-15T00:18:49;91618.50;;;1.36;100.00
65376;BME280;51976;47.332;9.404;2024-01-15T00:21:14;91624.63;;;1.37;100.00
65376;BME280;51976;47.332;9.404;2024-01-15T00:23:43;91623.28;;;1.39;100.00
65376;BME280;51976;47.332;9.404;2024-01-15T00:26:09;91609.19;;;1.33;100.00
65376;BME280;51976;47.332;9.404;2024-01-15T00:28:36;91613.22;;;1.36;100.00
65376;BME280;51976;47.332;9.404;2024-01-15T00:31:01;91626.19;;;1.38;100.00
65376;BME280;51976;47.332;9.404;2024-01-15T00:33:27;91616.38;;;1.38;100.00
65376;BME280;51976;47.332;9.404;2024-01-15T00:35:52;91622.78;;;1.42;100.00
65376;BME280;51976;47.332;9.404;2024-01-15T00:38:18;91613.47;;;1.40;100.00
65376;BME280;51976;47.332;9.404;2024-01-15T00:40:43;91614.28;;;1.40;100.00
65376;BME280;51976;47.332;9.404;2024-01-15T00:43:08;91607.34;;;1.39;100.00
65376;BME280;51976;47.332;9.404;2024-01-15T00:45:34;91605.75;;;1.33;100.00
65376;BME280;51976;47.332;9.404;2024-01-15T00:47:59;91601.25;;;1.39;100.00
65376;BME280;51976;47.332;9.404;2024-01-15T00:50:26;91594.63;;;1.36;100.00
65376;BME280;51976;47.332;9.404;2024-01-15T00:52:51;91592.47;;;1.33;100.00
65376;BME280;51976;47.332;9.404;2024-01-15T00:55:17;91599.63;;;1.32;100.00
65376;BME280;51976;47.332;9.404;2024-01-15T00:57:42;91607.31;;;1.29;100.00
65376;BME280;51976;47.332;9.404;2024-01-15T01:00:07;91612.34;;;1.25;100.00
65376;BME280;51976;47.332;9.404;2024-01-15T01:02:34;91607.81;;;1.26;100.00
65376;BME280;51976;47.332;9.404;2024-01-15T01:04:59;91618.94;;;1.23;100.00
65376;BME280;51976;47.332;9.404;2024-01-15T01:07:25;91610.22;;;1.27;100.00
65376;BME280;51976;47.332;9.404;2024-01-15T01:09:50;91606.00;;;1.31;100.00
65376;BME280;51976;47.332;9.404;2024-01-15T01:12:16;91612.66;;;1.34;100.00
65376;BME280;51976;47.332;9.404;2024-01-15T01:14:42;91588.78;;;1.39;100.00
65376;BME280;51976;47.332;9.404;2024-01-15T01:17:07;91587.19;;;1.43;100.00
65376;BME280;51976;47.332;9.404;2024-01-15T01:19:33;91567.56;;;1.44;100.00
65376;BME280;51976;47.332;9.404;2024-01-15T01:21:58;91576.03;;;1.41;100.00
65376;BME280;51976;47.332;9.404;2024-01-15T01:24:23;91592.50;;;1.43;100.00
65376;BME280;51976;47.332;9.404;2024-01-15T01:26:49;91592.50;;;1.43;100.00
65376;BME280;51976;47.332;9.404;2024-01-15T01:29:14;91595.41;;;1.42;100.00
65376;BME280;51976;47.332;9.404;2024-01-15T01:31:43;91591.47;;;1.44;100.00
65376;BME280;51976;47.332;9.404;2024-01-15T01:34:09;91598.38;;;1.45;100.00
65376;BME280;51976;47.332;9.404;2024-01-15T01:36:35;91588.00;;;1.44;100.00
65376;BME280;51976;47.332;9.404;2024-01-15T01:39:00;91587.22;;;1.48;100.00
65376;BME280;51976;47.332;9.404;2024-01-15T01:41:25;91590.16;;;1.47;100.00
65376;BME280;51976;47.332;9.404;2024-01-15T01:43:51;91588.00;;;1.44;100.00
65376;BME280;51976;47.332;9.404;2024-01-15T01:46:16;91590.94;;;1.47;100.00
65376;BME280;51976;47.332;9.404;2024-01-15T01:48:42;91578.75;;;1.51;100.00
65376;BME280;51976;47.332;9.404;2024-01-15T01:51:08;91563.63;;;1.52;100.00
65376;BME280;51976;47.332;9.404;2024-01-15T01:53:34;91563.34;;;1.48;100.00
65376;BME280;51976;47.332;9.404;2024-01-15T01:56:00;91564.66;;;1.46;100.00
65376;BME280;51976;47.332;9.404;2024-01-15T01:58:27;91584.84;;;1.47;100.00
65376;BME280;51976;47.332;9.404;2024-01-15T02:00:53;91569.16;;;1.45;100.00
65376;BME280;51976;47.332;9.404;2024-01-15T02:03:19;91585.13;;;1.50;100.00
65376;BME280;51976;47.332;9.404;2024-01-15T02:05:45;91575.00;;;1.47;100.00
65376;BME280;51976;47.332;9.404;2024-01-15T02:08:12;91576.59;;;1.43;100.00
65376;BME280;51976;47.332;9.404;2024-01-15T02:10:38;91585.09;;;1.45;100.00
65376;BME280;51976;47.332;9.404;2024-01-15T02:13:03;91578.19;;;1.44;100.00
65376;BME280;51976;47.332;9.404;2024-01-15T02:15:29;91574.75;;;1.49;100.00
65376;BME280;51976;47.332;9.404;2024-01-15T02:18:01;91569.97;;;1.46;100.00
65376;BME280;51976;47.332;9.404;2024-01-15T02:20:27;91572.06;;;1.44;100.00
65376;BME280;51976;47.332;9.404;2024-01-15T02:22:52;91583.75;;;1.43;100.00
65376;BME280;51976;47.332;9.404;2024-01-15T02:25:18;91575.28;;;1.46;100.00
65376;BME280;51976;47.332;9.404;2024-01-15T02:27:44;91578.72;;;1.46;100.00
65376;BME280;51976;47.332;9.404;2024-01-15T02:30:11;91578.41;;;1.38;100.00
65376;BME280;51976;47.332;9.404;2024-01-15T02:32:38;91592.47;;;1.38;100.00
65376;BME280;51976;47.332;9.404;2024-01-15T02:35:03;91583.72;;;1.38;100.00
65376;BME280;51976;47.332;9.404;2024-01-15T02:37:29;91587.97;;;1.33;100.00
65376;BME280;51976;47.332;9.404;2024-01-15T02:39:54;91589.03;;;1.32;100.00
65376;BME280;51976;47.332;9.404;2024-01-15T02:42:19;91588.22;;;1.32;100.00
65376;BME280;51976;47.332;9.404;2024-01-15T02:44:45;91581.56;;;1.29;100.00
65376;BME280;51976;47.332;9.404;2024-01-15T02:47:10;91588.72;;;1.29;100.00
65376;BME280;51976;47.332;9.404;2024-01-15T02:49:35;91588.47;;;1.30;100.00
65376;BME280;51976;47.332;9.404;2024-01-15T02:52:01;91585.81;;;1.30;100.00
65376;BME280;51976;47.332;9.404;2024-01-15T02:54:26;91592.97;;;1.30;100.00
65376;BME280;51976;47.332;9.404;2024-01-15T02:56:52;91585.28;;;1.28;100.00
65376;BME280;51976;47.332;9.404;2024-01-15T02:59:17;91577.59;;;1.32;100.00
65376;BME280;51976;47.332;9.404;2024-01-15T03:01:42;91574.91;;;1.27;100.00
65376;BME280;51976;47.332;9.404;2024-01-15T03:04:08;91579.72;;;1.30;100.00
65376;BME280;51976;47.332;9.404;2024-01-15T03:06:33;91566.69;;;1.28;100.00
65376;BME280;51976;47.332;9.404;2024-01-15T03:08:58;91564.53;;;1.25;100.00
65376;BME280;51976;47.332;9.404;2024-01-15T03:11:24;91574.09;;;1.26;100.00
65376;BME280;51976;47.332;9.404;2024-01-15T03:13:49;91570.16;;;1.29;100.00
65376;BME280;51976;47.332;9.404;2024-01-15T03:16:15;91573.81;;;1.23;100.00
65376;BME280;51976;47.332;9.404;2024-01-15T03:18:40;91592.91;;;0.78;100.00
65376;BME280;51976;47.332;9.404;2024-01-15T03:21:06;91592.91;;;0.78;100.00
65376;BME280;51976;47.332;9.404;2024-01-15T03:23:31;91588.72;;;0.28;100.00
65376;BME280;51976;47.332;9.404;2024-01-15T03:25:56;91598.00;;;0.25;100.00
65376;BME280;51976;47.332;9.404;2024-01-15T03:28:22;91605.16;;;0.03;100.00
65376;BME280;51976;47.332;9.404;2024-01-15T03:30:47;91609.25;;;-0.11;100.00
65376;BME280;51976;47.332;9.404;2024-01-15T03:33:12;91610.88;;;-0.10;100.00
65376;BME280;51976;47.332;9.404;2024-01-15T03:35:38;91600.63;;;-0.23;100.00
65376;BME280;51976;47.332;9.404;2024-01-15T03:38:03;91598.53;;;-0.21;100.00
65376;BME280;51976;47.332;9.404;2024-01-15T03:40:29;91581.06;;;-0.22;100.00
65376;BME280;51976;47.332;9.404;2024-01-15T03:42:54;91587.63;;;-0.25;100.00
65376;BME280;51976;47.332;9.404;2024-01-15T03:45:19;91587.31;;;-0.33;100.00
65376;BME280;51976;47.332;9.404;2024-01-15T03:47:45;91576.94;;;-0.35;100.00
65376;BME280;51976;47.332;9.404;2024-01-15T03:50:10;91585.44;;;-0.33;100.00
65376;BME280;51976;47.332;9.404;2024-01-15T03:52:35;91588.22;;;-0.45;100.00
65376;BME280;51976;47.332;9.404;2024-01-15T03:55:01;91587.59;;;-0.52;100.00
65376;BME280;51976;47.332;9.404;2024-01-15T03:57:26;91598.38;;;-0.58;100.00
65376;BME280;51976;47.332;9.404;2024-01-15T03:59:52;91584.84;;;-0.62;100.00
65376;BME280;51976;47.332;9.404;2024-01-15T04:02:17;91589.66;;;-0.76;100.00
65376;BME280;51976;47.332;9.404;2024-01-15T04:04:43;91591.94;;;-0.84;100.00
65376;BME280;51976;47.332;9.404;2024-01-15T04:07:09;91593.25;;;-1.04;100.00
65376;BME280;51976;47.332;9.404;2024-01-15T04:09:35;91596.50;;;-1.18;100.00
65376;BME280;51976;47.332;9.404;2024-01-15T04:12:00;91589.19;;;-1.11;100.00
65376;BME280;51976;47.332;9.404;2024-01-15T04:14:25;91596.25;;;-1.17;100.00
65376;BME280;51976;47.332;9.404;2024-01-15T04:16:51;91594.31;;;-1.21;100.00
65376;BME280;51976;47.332;9.404;2024-01-15T04:19:16;91611.38;;;-1.29;100.00
65376;BME280;51976;47.332;9.404;2024-01-15T04:21:42;91601.03;;;-1.30;100.00
65376;BME280;51976;47.332;9.404;2024-01-15T04:24:07;91594.88;;;-1.36;100.00
65376;BME280;51976;47.332;9.404;2024-01-15T04:26:32;91599.31;;;-1.42;100.00
65376;BME280;51976;47.332;9.404;2024-01-15T04:28:58;91599.47;;;-1.48;100.00
65376;BME280;51976;47.332;9.404;2024-01-15T04:31:25;91592.34;;;-1.48;100.00
65376;BME280;51976;47.332;9.404;2024-01-15T04:33:52;91605.22;;;-1.51;100.00
65376;BME280;51976;47.332;9.404;2024-01-15T04:36:17;91592.25;;;-1.53;100.00
65376;BME280;51976;47.332;9.404;2024-01-15T04:38:43;91600.88;;;-1.57;100.00
65376;BME280;51976;47.332;9.404;2024-01-15T04:41:12;91599.75;;;-1.61;100.00
65376;BME280;51976;47.332;9.404;2024-01-15T04:43:38;91611.78;;;-1.71;100.00
65376;BME280;51976;47.332;9.404;2024-01-15T04:46:06;91605.94;;;-1.73;100.00
65376;BME280;51976;47.332;9.404;2024-01-15T04:48:32;91622.38;;;-1.82;100.00
65376;BME280;51976;47.332;9.404;2024-01-15T04:50:57;91624.09;;;-1.76;100.00
65376;BME280;51976;47.332;9.404;2024-01-15T04:53:23;91622.00;;;-1.74;100.00
65376;BME280;51976;47.332;9.404;2024-01-15T04:55:48;91624.69;;;-1.86;100.00
65376;BME280;51976;47.332;9.404;2024-01-15T04:58:13;91624.09;;;-1.76;100.00
65376;BME280;51976;47.332;9.404;2024-01-15T05:00:39;91622.88;;;-1.85;100.00
65376;BME280;51976;47.332;9.404;2024-01-15T05:03:05;91625.38;;;-1.79;100.00
65376;BME280;51976;47.332;9.404;2024-01-15T05:05:31;91627.09;;;-1.84;100.00
65376;BME280;51976;47.332;9.404;2024-01-15T05:07:56;91624.13;;;-1.88;100.00
65376;BME280;51976;47.332;9.404;2024-01-15T05:10:21;91624.69;;;-1.86;100.00
65376;BME280;51976;47.332;9.404;2024-01-15T05:12:47;91630.56;;;-1.84;100.00
65376;BME280;51976;47.332;9.404;2024-01-15T05:15:12;91632.81;;;-1.76;100.00
65376;BME280;51976;47.332;9.404;2024-01-15T05:17:38;91630.88;;;-1.80;100.00
65376;BME280;51976;47.332;9.404;2024-01-15T05:20:03;91629.84;;;-1.79;100.00
65376;BME280;51976;47.332;9.404;2024-01-15T05:22:29;91620.56;;;-1.82;100.00
65376;BME280;51976;47.332;9.404;2024-01-15T05:24:55;91632.59;;;-1.74;100.00
65376;BME280;51976;47.332;9.404;2024-01-15T05:27:20;91627.44;;;-1.81;100.00
65376;BME280;51976;47.332;9.404;2024-01-15T05:29:45;91625.38;;;-1.79;100.00
65376;BME280;51976;47.332;9.404;2024-01-15T05:32:11;91624.00;;;-1.81;100.00
65376;BME280;51976;47.332;9.404;2024-01-15T05:34:36;91617.88;;;-1.70;100.00
65376;BME280;51976;47.332;9.404;2024-01-15T05:37:02;91607.84;;;-1.68;100.00
65376;BME280;51976;47.332;9.404;2024-01-15T05:39:27;91609.03;;;-1.76;100.00
65376;BME280;51976;47.332;9.404;2024-01-15T05:41:52;91605.13;;;-1.73;100.00
65376;BME280;51976;47.332;9.404;2024-01-15T05:44:18;91599.28;;;-1.75;100.00
65376;BME280;51976;47.332;9.404;2024-01-15T05:46:43;91593.75;;;-1.74;100.00
65376;BME280;51976;47.332;9.404;2024-01-15T05:49:09;91596.72;;;-1.70;100.00
65376;BME280;51976;47.332;9.404;2024-01-15T05:51:34;91599.28;;;-1.75;100.00
65376;BME280;51976;47.332;9.404;2024-01-15T05:53:59;91593.66;;;-1.79;100.00
65376;BME280;51976;47.332;9.404;2024-01-15T05:56:25;91595.28;;;-1.78;100.00
65376;BME280;51976;47.332;9.404;2024-01-15T05:58:50;91594.03;;;-1.87;100.00
65376;BME280;51976;47.332;9.404;2024-01-15T06:01:16;91599.91;;;-1.85;100.00
65376;BME280;51976;47.332;9.404;2024-01-15T06:03:41;91607.66;;;-1.95;100.00
65376;BME280;51976;47.332;9.404;2024-01-15T06:06:08;91608.69;;;-1.96;100.00
65376;BME280;51976;47.332;9.404;2024-01-15T06:08:34;91607.09;;;-1.97;100.00
65376;BME280;51976;47.332;9.404;2024-01-15T06:10:59;91612.38;;;-1.97;100.00
65376;BME280;51976;47.332;9.404;2024-01-15T06:13:25;91613.41;;;-1.98;100.00
65376;BME280;51976;47.332;9.404;2024-01-15T06:15:50;91611.97;;;-1.89;100.00
65376;BME280;51976;47.332;9.404;2024-01-15T06:18:16;91612.41;;;-1.80;100.00
65376;BME280;51976;47.332;9.404;2024-01-15T06:20:41;91610.56;;;-1.80;100.00
65376;BME280;51976;47.332;9.404;2024-01-15T06:23:07;91615.41;;;-1.88;100.00
65376;BME280;51976;47.332;9.404;2024-01-15T06:25:32;91617.09;;;-1.82;100.00
65376;BME280;51976;47.332;9.404;2024-01-15T06:27:57;91605.88;;;-1.89;100.00
65376;BME280;51976;47.332;9.404;2024-01-15T06:30:23;91605.19;;;-1.85;100.00
65376;BME280;51976;47.332;9.404;2024-01-15T06:32:48;91608.81;;;-1.74;100.00
65376;BME280;51976;47.332;9.404;2024-01-15T06:35:14;91604.88;;;-1.72;100.00
65376;BME280;51976;47.332;9.404;2024-01-15T06:37:39;91599.19;;;-1.63;100.00
65376;BME280;51976;47.332;9.404;2024-01-15T06:40:05;91591.13;;;-1.57;100.00
65376;BME280;51976;47.332;9.404;2024-01-15T06:42:31;91594.88;;;-1.53;100.00
65376;BME280;51976;47.332;9.404;2024-01-15T06:44:56;91589.94;;;-1.49;100.00
65376;BME280;51976;47.332;9.404;2024-01-15T06:47:22;91584.47;;;-1.43;100.00
65376;BME280;51976;47.332;9.404;2024-01-15T06:49:47;91581.97;;;-1.32;100.00
65376;BME280;51976;47.332;9.404;2024-01-15T06:52:12;91581.66;;;-1.36;100.00
65376;BME280;51976;47.332;9.404;2024-01-15T06:54:38;91574.28;;;-1.34;100.00
65376;BME280;51976;47.332;9.404;2024-01-15T06:57:03;91574.38;;;-1.29;100.00
65376;BME280;51976;47.332;9.404;2024-01-15T06:59:29;91575.03;;;-1.39;100.00
65376;BME280;51976;47.332;9.404;2024-01-15T07:01:55;91565.19;;;-1.43;100.00
65376;BME280;51976;47.332;9.404;2024-01-15T07:04:20;91575.44;;;-1.47;100.00
65376;BME280;51976;47.332;9.404;2024-01-15T07:06:46;91575.75;;;-1.43;100.00
65376;BME280;51976;47.332;9.404;2024-01-15T07:09:13;91585.59;;;-1.39;100.00
65376;BME280;51976;47.332;9.404;2024-01-15T07:11:44;91582.72;;;-1.54;100.00
65376;BME280;51976;47.332;9.404;2024-01-15T07:14:10;91578.94;;;-1.58;100.00
65376;BME280;51976;47.332;9.404;2024-01-15T07:16:35;91581.03;;;-1.43;100.00
65376;BME280;51976;47.332;9.404;2024-01-15T07:19:01;91577.97;;;-1.35;100.00
65376;BME280;51976;47.332;9.404;2024-01-15T07:21:27;91592.41;;;-1.43;100.00
65376;BME280;51976;47.332;9.404;2024-01-15T07:23:53;91582.22;;;-1.51;100.00
65376;BME280;51976;47.332;9.404;2024-01-15T07:26:18;91588.31;;;-1.50;100.00
65376;BME280;51976;47.332;9.404;2024-01-15T07:28:44;91586.66;;;-1.40;100.00
65376;BME280;51976;47.332;9.404;2024-01-15T07:31:11;91586.00;;;-1.30;100.00
65376;BME280;51976;47.332;9.404;2024-01-15T07:33:38;91583.59;;;-1.31;100.00
65376;BME280;51976;47.332;9.404;2024-01-15T07:36:03;91582.47;;;-1.36;100.00
65376;BME280;51976;47.332;9.404;2024-01-15T07:38:29;91583.91;;;-1.28;100.00
65376;BME280;51976;47.332;9.404;2024-01-15T07:40:55;91584.47;;;-1.26;100.00
65376;BME280;51976;47.332;9.404;2024-01-15T07:43:20;91586.22;;;-1.31;100.00
65376;BME280;51976;47.332;9.404;2024-01-15T07:45:48;91586.09;;;-1.42;100.00
65376;BME280;51976;47.332;9.404;2024-01-15T07:48:13;91587.28;;;-1.49;100.00
65376;BME280;51976;47.332;9.404;2024-01-15T07:50:39;91582.00;;;-1.66;100.00
65376;BME280;51976;47.332;9.404;2024-01-15T07:53:05;91588.56;;;-1.68;100.00
65376;BME280;51976;47.332;9.404;2024-01-15T07:55:30;91584.41;;;-1.64;100.00
65376;BME280;51976;47.332;9.404;2024-01-15T07:57:57;91590.16;;;-1.67;100.00
65376;BME280;51976;47.332;9.404;2024-01-15T08:00:25;91586.47;;;-1.66;100.00
65376;BME280;51976;47.332;9.404;2024-01-15T08:02:51;91592.56;;;-1.66;100.00
65376;BME280;51976;47.332;9.404;2024-01-15T08:05:18;91589.19;;;-1.61;100.00
65376;BME280;51976;47.332;9.404;2024-01-15T08:07:44;91584.88;;;-1.67;100.00
65376;BME280;51976;47.332;9.404;2024-01-15T08:10:09;91587.81;;;-1.64;100.00
65376;BME280;51976;47.332;9.404;2024-01-15T08:12:35;91594.72;;;-1.63;100.00
65376;BME280;51976;47.332;9.404;2024-01-15T08:15:01;91586.53;;;-1.61;100.00
65376;BME280;51976;47.332;9.404;2024-01-15T08:17:26;91591.34;;;-1.58;100.00
65376;BME280;51976;47.332;9.404;2024-01-15T08:19:54;91596.41;;;-1.57;100.00
65376;BME280;51976;47.332;9.404;2024-01-15T08:22:22;91589.69;;;-1.64;100.00
65376;BME280;51976;47.332;9.404;2024-01-15T08:24:48;91594.22;;;-1.60;100.00
65376;BME280;51976;47.332;9.404;2024-01-15T08:27:17;91598.56;;;-1.54;100.00
65376;BME280;51976;47.332;9.404;2024-01-15T08:29:43;91590.16;;;-1.67;100.00
65376;BME280;51976;47.332;9.404;2024-01-15T08:32:08;91592.41;;;-1.59;100.00
65376;BME280;51976;47.332;9.404;2024-01-15T08:34:39;91600.56;;;-1.61;100.00
65376;BME280;51976;47.332;9.404;2024-01-15T08:37:04;91606.88;;;-1.62;100.00
65376;BME280;51976;47.332;9.404;2024-01-15T08:39:30;91608.81;;;-1.57;100.00
65376;BME280;51976;47.332;9.404;2024-01-15T08:41:55;91603.31;;;-1.39;100.00
65376;BME280;51976;47.332;9.404;2024-01-15T08:44:21;91599.63;;;-1.38;100.00
65376;BME280;51976;47.332;9.404;2024-01-15T08:46:46;91593.53;;;-1.22;100.00
65376;BME280;51976;47.332;9.404;2024-01-15T08:49:14;91598.19;;;-1.46;100.00
65376;BME280;51976;47.332;9.404;2024-01-15T08:51:39;91601.03;;;-1.30;100.00
65376;BME280;51976;47.332;9.404;2024-01-15T08:54:05;91595.16;;;-1.38;100.00
65376;BME280;51976;47.332;9.404;2024-01-15T08:56:33;91612.66;;;-1.48;100.00
65376;BME280;51976;47.332;9.404;2024-01-15T08:58:59;91603.59;;;-1.36;100.00
65376;BME280;51976;47.332;9.404;2024-01-15T09:01:25;91603.13;;;-1.49;100.00
65376;BME280;51976;47.332;9.404;2024-01-15T09:03:50;91608.66;;;-1.51;100.00
65376;BME280;51976;47.332;9.404;2024-01-15T09:06:16;91596.53;;;-1.63;100.00
65376;BME280;51976;47.332;9.404;2024-01-15T09:08:41;91599.75;;;-1.61;100.00
65376;BME280;51976;47.332;9.404;2024-01-15T09:11:07;91602.97;;;-1.59;100.00
65376;BME280;51976;47.332;9.404;2024-01-15T09:13:32;91598.56;;;-1.54;100.00
65376;BME280;51976;47.332;9.404;2024-01-15T09:15:58;91599.28;;;-1.58;100.00
65376;BME280;51976;47.332;9.404;2024-01-15T09:18:24;91606.16;;;-1.74;100.00
65376;BME280;51976;47.332;9.404;2024-01-15T09:20:50;91610.19;;;-1.72;100.00
65376;BME280;51976;47.332;9.404;2024-01-15T09:23:15;91614.97;;;-1.68;100.00
65376;BME280;51976;47.332;9.404;2024-01-15T09:25:41;91608.09;;;-1.69;100.00
65376;BME280;51976;47.332;9.404;2024-01-15T09:28:06;91609.59;;;-1.74;100.00
65376;BME280;51976;47.332;9.404;2024-01-15T09:30:33;91621.22;;;-1.75;100.00
65376;BME280;51976;47.332;9.404;2024-01-15T09:32:58;91612.16;;;-1.79;100.00
65376;BME280;51976;47.332;9.404;2024-01-15T09:35:24;91626.53;;;-1.86;100.00
65376;BME280;51976;47.332;9.404;2024-01-15T09:37:50;91627.91;;;-1.84;100.00
65376;BME280;51976;47.332;9.404;2024-01-15T09:40:17;91629.84;;;-1.79;100.00
65376;BME280;51976;47.332;9.404;2024-01-15T09:42:43;91629.97;;;-1.86;100.00
65376;BME280;51976;47.332;9.404;2024-01-15T09:45:13;91620.28;;;-1.97;100.00
65376;BME280;51976;47.332;9.404;2024-01-15T09:47:40;91635.25;;;-2.02;100.00
65376;BME280;51976;47.332;9.404;2024-01-15T09:50:07;91631.94;;;-2.10;100.00
65376;BME280;51976;47.332;9.404;2024-01-15T09:52:34;91628.13;;;-2.02;100.00
65376;BME280;51976;47.332;9.404;2024-01-15T09:55:01;91623.22;;;-2.10;100.00
65376;BME280;51976;47.332;9.404;2024-01-15T09:57:28;91617.34;;;-2.12;100.00
65376;BME280;51976;47.332;9.404;2024-01-15T09:59:54;91631.81;;;-2.15;100.00
65376;BME280;51976;47.332;9.404;2024-01-15T10:02:22;91631.78;;;-2.03;100.00
65376;BME280;51976;47.332;9.404;2024-01-15T10:04:48;91635.25;;;-2.02;100.00
65376;BME280;51976;47.332;9.404;2024-01-15T10:07:15;91633.66;;;-1.87;100.00
65376;BME280;51976;47.332;9.404;2024-01-15T10:09:45;91622.16;;;-1.81;100.00
65376;BME280;51976;47.332;9.404;2024-01-15T10:12:12;91622.16;;;-1.81;100.00
65376;BME280;51976;47.332;9.404;2024-01-15T10:14:38;91609.41;;;-1.84;100.00
65376;BME280;51976;47.332;9.404;2024-01-15T10:17:13;91609.28;;;-1.77;100.00
65376;BME280;51976;47.332;9.404;2024-01-15T10:19:40;91595.38;;;-1.73;100.00
65376;BME280;51976;47.332;9.404;2024-01-15T10:22:08;91598.09;;;-1.67;100.00
65376;BME280;51976;47.332;9.404;2024-01-15T10:24:37;91592.41;;;-1.59;100.00
65376;BME280;51976;47.332;9.404;2024-01-15T10:27:07;91590.31;;;-1.57;100.00
65376;BME280;51976;47.332;9.404;2024-01-15T10:29:34;91579.84;;;-1.52;100.00
65376;BME280;51976;47.332;9.404;2024-01-15T10:32:00;91582.31;;;-1.46;100.00
65376;BME280;51976;47.332;9.404;2024-01-15T10:34:26;91589.22;;;-1.45;100.00
65376;BME280;51976;47.332;9.404;2024-01-15T10:36:51;91582.53;;;-1.30;100.00
65376;BME280;51976;47.332;9.404;2024-01-15T10:39:21;91578.69;;;-1.23;100.00
65376;BME280;51976;47.332;9.404;2024-01-15T10:41:48;91572.22;;;-1.32;100.00
65376;BME280;51976;47.332;9.404;2024-01-15T10:44:13;91569.81;;;-1.33;100.00
65376;BME280;51976;47.332;9.404;2024-01-15T10:46:39;91557.63;;;-1.34;100.00
65376;BME280;51976;47.332;9.404;2024-01-15T10:49:05;91554.81;;;-1.28;100.00
65376;BME280;51976;47.332;9.404;2024-01-15T10:51:31;91546.41;;;-1.25;100.00
65376;BME280;51976;47.332;9.404;2024-01-15T10:53:56;91558.09;;;-1.21;100.00
65376;BME280;51976;47.332;9.404;2024-01-15T10:56:23;91550.41;;;-1.22;100.00
65376;BME280;51976;47.332;9.404;2024-01-15T10:58:50;91537.91;;;-1.10;100.00
65376;BME280;51976;47.332;9.404;2024-01-15T11:01:16;91535.38;;;-1.00;100.00
65376;BME280;51976;47.332;9.404;2024-01-15T11:03:43;91536.84;;;-1.09;100.00
65376;BME280;51976;47.332;9.404;2024-01-15T11:06:18;91535.00;;;-1.09;100.00
65376;BME280;51976;47.332;9.404;2024-01-15T11:08:49;91534.72;;;-0.90;100.00
65376;BME280;51976;47.332;9.404;2024-01-15T11:11:18;91528.38;;;-0.89;100.00
65376;BME280;51976;47.332;9.404;2024-01-15T11:13:46;91532.91;;;-1.07;100.00
65376;BME280;51976;47.332;9.404;2024-01-15T11:16:13;91533.78;;;-1.01;100.00
65376;BME280;51976;47.332;9.404;2024-01-15T11:19:00;91528.88;;;-0.92;100.00
65376;BME280;51976;47.332;9.404;2024-01-15T11:21:26;91529.50;;;-0.85;100.00
65376;BME280;51976;47.332;9.404;2024-01-15T11:23:57;91534.31;;;-0.82;100.00
65376;BME280;51976;47.332;9.404;2024-01-15T11:26:36;91532.16;;;-0.85;100.00
65376;BME280;51976;47.332;9.404;2024-01-15T11:29:04;91532.31;;;-0.70;100.00
65376;BME280;51976;47.332;9.404;2024-01-15T11:31:57;91538.97;;;-0.68;100.00
65376;BME280;51976;47.332;9.404;2024-01-15T11:34:58;91547.56;;;-0.77;100.00
65376;BME280;51976;47.332;9.404;2024-01-15T11:37:25;91539.22;;;-0.69;100.00
65376;BME280;51976;47.332;9.404;2024-01-15T11:39:52;91544.88;;;-0.60;100.00
65376;BME280;51976;47.332;9.404;2024-01-15T11:42:20;91543.47;;;-0.68;100.00
65376;BME280;51976;47.332;9.404;2024-01-15T11:44:45;91548.19;;;-0.70;100.00
65376;BME280;51976;47.332;9.404;2024-01-15T11:47:11;91549.00;;;-0.48;100.00
65376;BME280;51976;47.332;9.404;2024-01-15T11:49:58;91547.47;;;-0.44;100.00
65376;BME280;51976;47.332;9.404;2024-01-15T11:52:33;91542.66;;;-0.47;100.00
65376;BME280;51976;47.332;9.404;2024-01-15T11:55:11;91544.75;;;-0.49;100.00
65376;BME280;51976;47.332;9.404;2024-01-15T11:57:42;91543.16;;;-0.50;100.00
65376;BME280;51976;47.332;9.404;2024-01-15T12:00:12;91542.03;;;-0.54;100.00
65376;BME280;51976;47.332;9.404;2024-01-15T12:02:39;91534.78;;;-0.63;100.00
65376;BME280;51976;47.332;9.404;2024-01-15T12:05:05;91530.38;;;-0.58;100.00
65376;BME280;51976;47.332;9.404;2024-01-15T12:07:32;91526.66;;;-0.57;100.00
65376;BME280;51976;47.332;9.404;2024-01-15T12:09:58;91517.69;;;-0.56;100.00
65376;BME280;51976;47.332;9.404;2024-01-15T12:12:29;91517.69;;;-0.56;100.00
65376;BME280;51976;47.332;9.404;2024-01-15T12:14:59;91510.63;;;-0.45;100.00
65376;BME280;51976;47.332;9.404;2024-01-15T12:17:25;91512.56;;;-0.62;100.00
65376;BME280;51976;47.332;9.404;2024-01-15T12:19:50;91503.72;;;-0.73;100.00
65376;BME280;51976;47.332;9.404;2024-01-15T12:22:16;91506.91;;;-0.71;100.00
65376;BME280;51976;47.332;9.404;2024-01-15T12:24:41;91508.72;;;-0.50;100.00
65376;BME280;51976;47.332;9.404;2024-01-15T12:27:07;91507.94;;;-0.50;100.00
65376;BME280;51976;47.332;9.404;2024-01-15T12:29:33;91507.50;;;-0.42;100.00
65376;BME280;51976;47.332;9.404;2024-01-15T12:31:58;91500.06;;;-0.45;100.00
65376;BME280;51976;47.332;9.404;2024-01-15T12:34:24;91486.19;;;-0.52;100.00
65376;BME280;51976;47.332;9.404;2024-01-15T12:36:49;91495.31;;;-0.43;100.00
65376;BME280;51976;47.332;9.404;2024-01-15T12:39:15;91489.22;;;-0.44;100.00
65376;BME280;51976;47.332;9.404;2024-01-15T12:41:41;91491.91;;;-0.39;100.00
65376;BME280;51976;47.332;9.404;2024-01-15T12:44:06;91498.38;;;-0.29;100.00
65376;BME280;51976;47.332;9.404;2024-01-15T12:46:32;91505.06;;;-0.22;100.00
65376;BME280;51976;47.332;9.404;2024-01-15T12:48:58;91506.66;;;-0.21;100.00